Terminal Aerodrome Forecast
Issued by NWS

Home | Current Version | Previous Version | Text Only | Print | Product List | Glossary On
Versions: 1 2 3 4 5 6 7 8 9 10 11 12 13 14 15 16 17 18 19 20 21 22 23 24 25 26 27 28
000
FTUS43 KLSX 250300 AAC
TAFCPS
TAF AMD
KCPS 250303Z 2503/2524 15012KT 5SM -SHRA BKN030 OVC050
      TEMPO 2503/2504 2SM -SHRA
     FM250500 21014KT P6SM SCT010 BKN020
     FM251500 19010KT P6SM SCT030=

USA.gov is the U.S. government's official web portal to all federal, state and local government web resources and services.